createdAt,value
2018-02-07T00:14:49.828Z,65.93
2018-02-07T00:17:17.668Z,66.09
2018-02-07T00:19:45.200Z,66.06
2018-02-07T00:22:14.624Z,65.98
2018-02-07T00:24:42.195Z,66.21
2018-02-07T00:27:09.729Z,66.30
2018-02-07T00:29:38.932Z,66.36
2018-02-07T00:32:06.509Z,66.29
2018-02-07T00:34:34.257Z,66.36
2018-02-07T00:37:01.797Z,66.33
2018-02-07T00:39:29.704Z,66.44
2018-02-07T00:41:57.225Z,66.44
2018-02-07T00:44:24.754Z,66.52
2018-02-07T00:46:52.307Z,66.48
2018-02-07T00:49:19.859Z,66.61
2018-02-07T00:51:47.692Z,66.66
2018-02-07T00:54:15.331Z,66.58
2018-02-07T00:56:42.897Z,66.66
2018-02-07T00:59:10.412Z,66.72
2018-02-07T01:01:38.095Z,66.68
2018-02-07T01:04:05.871Z,66.54
2018-02-07T01:06:33.407Z,66.75
2018-02-07T01:09:00.962Z,66.71
2018-02-07T01:11:28.496Z,66.79
2018-02-07T01:13:56.020Z,66.69
2018-02-07T01:16:23.568Z,66.85
2018-02-07T01:18:51.093Z,66.85
2018-02-07T01:21:18.632Z,66.95
2018-02-07T01:23:46.216Z,66.96
2018-02-07T01:26:13.966Z,66.79
2018-02-07T01:28:41.507Z,66.83
2018-02-07T01:31:09.096Z,66.99
2018-02-07T01:33:36.609Z,66.57
2018-02-07T01:36:04.126Z,66.67
2018-02-07T01:38:31.699Z,66.71
2018-02-07T01:40:59.221Z,67.06
2018-02-07T01:43:26.742Z,67.09
2018-02-07T01:45:54.324Z,67.03
2018-02-07T01:48:22.100Z,66.87
2018-02-07T01:50:49.636Z,66.99
2018-02-07T01:53:17.447Z,67.14
2018-02-07T01:55:45.287Z,67.08
2018-02-07T01:58:12.825Z,66.97
2018-02-07T02:00:40.377Z,66.97
2018-02-07T02:03:07.911Z,67.14
2018-02-07T02:05:35.460Z,67.16
2018-02-07T02:08:03.020Z,67.06
2018-02-07T02:10:30.569Z,67.28
2018-02-07T02:12:58.101Z,67.22
2018-02-07T02:15:25.660Z,66.92
2018-02-07T02:17:54.143Z,67.24
2018-02-07T02:20:21.687Z,67.26
2018-02-07T02:22:49.249Z,67.25
2018-02-07T02:25:16.783Z,67.20
2018-02-07T02:27:44.301Z,67.22
2018-02-07T02:30:11.976Z,67.26
2018-02-07T02:32:39.506Z,67.30
2018-02-07T02:35:07.373Z,67.03
2018-02-07T02:37:35.168Z,67.47
2018-02-07T02:40:02.729Z,67.29
2018-02-07T02:42:30.268Z,67.08
2018-02-07T02:44:57.848Z,67.50
2018-02-07T02:47:25.373Z,67.26
2018-02-07T02:49:52.908Z,67.55
2018-02-07T02:52:20.459Z,67.42
2018-02-07T02:54:47.985Z,67.28
2018-02-07T02:57:15.520Z,67.48
2018-02-07T02:59:43.093Z,67.37
2018-02-07T03:02:10.653Z,67.70
2018-02-07T03:04:38.191Z,67.59
2018-02-07T03:07:05.733Z,67.74
2018-02-07T03:09:33.301Z,67.48
2018-02-07T03:12:01.065Z,67.40
2018-02-07T03:14:28.596Z,67.22
2018-02-07T03:16:56.378Z,67.48
2018-02-07T03:19:23.896Z,67.66
2018-02-07T03:21:51.441Z,67.58
2018-02-07T03:24:19.011Z,67.73
2018-02-07T03:26:46.608Z,67.89
2018-02-07T03:29:14.162Z,67.83
2018-02-07T03:31:41.775Z,67.78
2018-02-07T03:34:09.334Z,67.79
2018-02-07T03:36:36.895Z,67.84
2018-02-07T03:39:04.474Z,67.77
2018-02-07T03:41:31.999Z,67.53
2018-02-07T03:43:59.852Z,67.91
2018-02-07T03:46:27.440Z,67.69
2018-02-07T03:48:55.459Z,67.65
2018-02-07T03:51:23.229Z,67.74
2018-02-07T03:53:50.803Z,67.83
2018-02-07T03:56:18.377Z,67.87
2018-02-07T03:58:46.593Z,67.82
2018-02-07T04:01:14.193Z,67.77
2018-02-07T04:03:41.716Z,67.32
2018-02-07T04:06:09.476Z,67.79
2018-02-07T04:08:37.038Z,67.86
2018-02-07T04:11:04.569Z,67.83
2018-02-07T04:13:32.110Z,68.07
2018-02-07T04:15:59.672Z,68.01
2018-02-07T04:18:27.188Z,67.86
2018-02-07T04:20:54.706Z,68.05
2018-02-07T04:23:22.292Z,68.12
2018-02-07T04:25:49.830Z,67.98
2018-02-07T04:28:18.544Z,67.71
2018-02-07T04:30:46.300Z,68.06
2018-02-07T04:33:13.833Z,68.11
2018-02-07T04:35:41.692Z,68.10
2018-02-07T04:38:09.864Z,67.79
2018-02-07T04:40:38.640Z,67.82
2018-02-07T04:43:06.413Z,68.12
2018-02-07T04:45:33.985Z,68.22
2018-02-07T04:48:01.565Z,68.21
2018-02-07T04:50:29.152Z,67.88
2018-02-07T04:52:56.740Z,67.98
2018-02-07T04:55:24.295Z,68.14
2018-02-07T04:57:51.834Z,68.03
2018-02-07T05:00:19.495Z,67.86
2018-02-07T05:02:47.090Z,67.75
2018-02-07T05:05:14.669Z,68.10
2018-02-07T05:07:42.223Z,68.04
2018-02-07T05:10:09.781Z,68.23
2018-02-07T05:12:37.564Z,68.23
2018-02-07T05:15:05.105Z,66.81
2018-02-07T05:17:32.629Z,68.32
2018-02-07T05:20:00.175Z,67.85
2018-02-07T05:22:27.747Z,67.91
2018-02-07T05:24:55.277Z,67.75
2018-02-07T05:27:22.832Z,68.06
2018-02-07T05:29:50.396Z,70.85
2018-02-07T05:32:17.951Z,68.55
2018-02-07T05:34:45.471Z,64.72
2018-02-07T05:37:12.999Z,59.89
2018-02-07T05:39:40.689Z,59.52
2018-02-07T05:42:08.235Z,59.54
2018-02-07T05:44:35.771Z,59.15
2018-02-07T05:47:03.323Z,57.39
2018-02-07T05:49:30.884Z,57.70
2018-02-07T05:51:58.412Z,57.96
2018-02-07T05:54:25.969Z,58.45
2018-02-07T05:56:53.572Z,57.44
2018-02-07T05:59:21.121Z,57.34
2018-02-07T06:01:48.690Z,57.08
2018-02-07T06:04:16.499Z,57.92
2018-02-07T06:06:44.116Z,57.56
2018-02-07T06:09:11.673Z,57.43
2018-02-07T06:11:39.217Z,56.80
2018-02-07T06:14:06.777Z,56.51
2018-02-07T06:16:34.356Z,56.77
2018-02-07T06:19:01.896Z,56.37
2018-02-07T06:21:29.421Z,56.54
2018-02-07T06:23:57.025Z,56.28
2018-02-07T06:26:24.542Z,55.88
2018-02-07T06:28:52.325Z,55.31
2018-02-07T06:31:19.900Z,55.34
2018-02-07T06:33:47.435Z,55.26
2018-02-07T06:36:14.965Z,55.31
2018-02-07T06:38:42.525Z,54.94
2018-02-07T06:41:10.051Z,54.67
2018-02-07T06:43:37.827Z,54.42
2018-02-07T06:46:05.402Z,53.93
2018-02-07T06:48:32.963Z,53.52
2018-02-07T06:51:00.516Z,53.02
2018-02-07T06:53:28.071Z,52.79
2018-02-07T06:55:55.601Z,53.13
2018-02-07T06:58:24.408Z,52.96
2018-02-07T07:01:07.440Z,51.82
2018-02-07T07:03:34.968Z,50.76
2018-02-07T07:06:02.664Z,49.67
2018-02-07T07:08:30.323Z,49.71
2018-02-07T07:10:57.846Z,49.01
2018-02-07T07:13:25.396Z,49.27
2018-02-07T07:15:52.959Z,49.39
2018-02-07T07:18:20.492Z,49.53
2018-02-07T07:20:48.028Z,50.14
2018-02-07T07:23:15.593Z,50.80
2018-02-07T07:25:43.156Z,51.04
2018-02-07T07:28:10.677Z,51.22
2018-02-07T07:30:39.312Z,51.56
2018-02-07T07:33:06.837Z,52.37
2018-02-07T07:35:34.377Z,52.75
2018-02-07T07:38:01.952Z,53.21
2018-02-07T07:40:29.473Z,54.05
2018-02-07T07:42:56.999Z,53.50
2018-02-07T07:45:24.604Z,53.25
2018-02-07T07:47:52.125Z,52.75
2018-02-07T07:50:19.649Z,51.71
2018-02-07T07:52:47.209Z,50.43
2018-02-07T07:55:14.756Z,49.09
2018-02-07T07:57:42.295Z,46.76
2018-02-07T08:00:09.981Z,45.54
2018-02-07T08:02:37.553Z,44.05
2018-02-07T08:05:05.128Z,43.54
2018-02-07T08:07:32.691Z,44.00
2018-02-07T08:10:00.219Z,44.53
2018-02-07T08:12:27.746Z,45.80
2018-02-07T08:14:55.306Z,46.99
2018-02-07T08:17:22.816Z,47.33
2018-02-07T08:19:50.350Z,46.86
2018-02-07T08:22:17.892Z,47.14
2018-02-07T08:24:45.418Z,46.90
2018-02-07T08:27:12.964Z,46.62
2018-02-07T08:29:40.551Z,46.00
2018-02-07T08:32:08.116Z,46.28
2018-02-07T08:34:35.668Z,45.58
2018-02-07T08:37:03.208Z,44.93
2018-02-07T08:39:30.882Z,44.98
2018-02-07T08:41:58.407Z,44.13
2018-02-07T08:44:25.929Z,43.12
2018-02-07T08:46:53.470Z,41.52
2018-02-07T08:49:21.004Z,41.56
2018-02-07T08:51:48.536Z,41.39
2018-02-07T08:54:16.102Z,41.02
2018-02-07T08:56:43.893Z,38.48
2018-02-07T08:59:11.418Z,34.56
2018-02-07T09:01:38.993Z,30.74
2018-02-07T09:04:06.527Z,25.86
2018-02-07T09:06:34.060Z,21.83
2018-02-07T09:09:01.617Z,21.41
2018-02-07T09:11:29.141Z,19.61
2018-02-07T09:13:56.676Z,17.41
2018-02-07T09:16:24.235Z,17.54
2018-02-07T09:18:51.777Z,17.19
2018-02-07T09:21:19.359Z,17.28
2018-02-07T09:23:46.901Z,17.81
2018-02-07T09:26:14.425Z,18.10
2018-02-07T09:28:41.936Z,18.34
2018-02-07T09:31:09.498Z,20.26
2018-02-07T09:33:37.035Z,21.09
2018-02-07T09:36:04.564Z,22.78
2018-02-07T09:38:32.124Z,23.71
2018-02-07T09:40:59.669Z,24.25
2018-02-07T09:43:27.181Z,23.63
2018-02-07T09:45:54.765Z,23.48
2018-02-07T09:48:22.307Z,22.53
2018-02-07T09:50:49.877Z,19.75
2018-02-07T09:53:17.465Z,17.53
2018-02-07T09:55:44.995Z,16.35
2018-02-07T09:58:12.522Z,15.11
2018-02-07T10:00:40.069Z,15.57
2018-02-07T10:03:07.604Z,15.41
2018-02-07T10:05:35.130Z,15.19
2018-02-07T10:08:02.680Z,14.82
2018-02-07T10:10:30.198Z,14.69
2018-02-07T10:12:57.725Z,13.52
2018-02-07T10:15:25.390Z,14.24
2018-02-07T10:17:52.922Z,14.87
2018-02-07T10:20:20.451Z,15.47
2018-02-07T10:22:48.011Z,16.28
2018-02-07T10:25:15.824Z,16.13
2018-02-07T10:27:43.320Z,16.32
2018-02-07T10:30:10.934Z,17.48
2018-02-07T10:32:38.461Z,18.87
2018-02-07T10:35:05.999Z,20.57
2018-02-07T10:37:33.554Z,21.18
2018-02-07T10:40:01.089Z,20.62
2018-02-07T10:42:28.621Z,19.76
2018-02-07T10:44:56.198Z,19.43
2018-02-07T10:47:23.727Z,18.64
2018-02-07T10:49:51.265Z,18.27
2018-02-07T10:52:18.822Z,18.20
2018-02-07T10:54:46.333Z,18.12
2018-02-07T10:57:13.878Z,18.00
2018-02-07T10:59:41.451Z,18.10
2018-02-07T11:02:09.221Z,17.92
2018-02-07T11:04:36.733Z,17.62
2018-02-07T11:07:04.304Z,18.47
2018-02-07T11:09:31.871Z,20.71
2018-02-07T11:11:59.387Z,23.00
2018-02-07T11:14:26.917Z,25.64
2018-02-07T11:16:54.472Z,27.61
2018-02-07T11:19:21.991Z,29.23
2018-02-07T11:21:49.521Z,31.97
2018-02-07T11:24:17.073Z,32.38
2018-02-07T11:26:44.849Z,34.05
2018-02-07T11:29:12.386Z,33.54
2018-02-07T11:31:40.223Z,33.74
2018-02-07T11:34:07.765Z,32.89
2018-02-07T11:36:35.346Z,30.97
2018-02-07T11:39:02.910Z,30.65
2018-02-07T11:41:30.467Z,29.47
2018-02-07T11:43:58.058Z,28.14
2018-02-07T11:46:25.876Z,28.07
2018-02-07T11:48:53.385Z,28.30
2018-02-07T11:51:20.915Z,28.03
2018-02-07T11:53:49.172Z,28.63
2018-02-07T11:56:16.744Z,28.76
2018-02-07T11:58:44.277Z,28.73
2018-02-07T12:01:11.957Z,29.36
2018-02-07T12:03:39.556Z,30.26
2018-02-07T12:06:07.355Z,30.23
2018-02-07T12:08:35.258Z,30.28
2018-02-07T12:11:03.020Z,31.11
2018-02-07T12:13:31.004Z,32.89
2018-02-07T12:15:58.593Z,34.66
2018-02-07T12:18:26.132Z,35.17
2018-02-07T12:20:53.719Z,35.98
2018-02-07T12:23:21.268Z,37.14
2018-02-07T12:25:48.869Z,37.01
2018-02-07T12:28:16.750Z,37.94
2018-02-07T12:30:44.588Z,39.93
2018-02-07T12:33:12.157Z,40.00
2018-02-07T12:35:39.685Z,39.56
2018-02-07T12:38:07.226Z,39.57
2018-02-07T12:40:34.758Z,39.25
2018-02-07T12:43:02.304Z,39.26
2018-02-07T12:45:29.873Z,38.54
2018-02-07T12:47:57.385Z,39.88
2018-02-07T12:50:24.931Z,38.92
2018-02-07T12:52:52.484Z,39.51
2018-02-07T12:55:20.011Z,41.21
2018-02-07T12:57:47.554Z,41.70
2018-02-07T13:00:15.131Z,41.72
2018-02-07T13:02:42.665Z,42.74
2018-02-07T13:05:10.224Z,41.30
2018-02-07T13:07:38.010Z,43.52
2018-02-07T13:10:05.525Z,44.16
2018-02-07T13:12:33.074Z,43.49
2018-02-07T13:15:01.767Z,43.28
2018-02-07T13:17:29.333Z,43.88
2018-02-07T13:19:56.902Z,43.09
2018-02-07T13:22:25.438Z,43.25
2018-02-07T13:24:52.983Z,43.09
2018-02-07T13:27:20.507Z,44.34
2018-02-07T13:29:48.055Z,43.15
2018-02-07T13:32:15.844Z,44.16
2018-02-07T13:34:43.375Z,45.92
2018-02-07T13:37:10.908Z,46.33
2018-02-07T13:39:38.463Z,46.15
2018-02-07T13:42:06.002Z,46.31
2018-02-07T13:44:33.513Z,45.61
2018-02-07T13:47:01.041Z,45.17
2018-02-07T13:49:28.604Z,46.62
2018-02-07T13:51:56.136Z,45.29
2018-02-07T13:54:23.702Z,47.92
2018-02-07T13:56:51.262Z,47.28
2018-02-07T13:59:18.805Z,48.85
2018-02-07T14:01:46.477Z,48.89
2018-02-07T14:04:14.001Z,48.39
2018-02-07T14:06:41.536Z,47.06
2018-02-07T14:09:09.095Z,48.66
2018-02-07T14:11:36.655Z,48.20
2018-02-07T14:14:04.195Z,47.23
2018-02-07T14:16:31.786Z,48.79
2018-02-07T14:18:59.359Z,48.67
2018-02-07T14:21:26.871Z,49.89
2018-02-07T14:23:54.470Z,49.43
2018-02-07T14:26:22.021Z,49.33
2018-02-07T14:28:49.556Z,49.79
2018-02-07T14:31:17.144Z,51.76
2018-02-07T14:33:44.904Z,51.81
2018-02-07T14:36:12.430Z,52.01
2018-02-07T14:38:40.048Z,50.82
2018-02-07T14:41:07.588Z,52.78
2018-02-07T14:43:36.096Z,52.17
2018-02-07T14:46:03.762Z,52.48
2018-02-07T14:48:31.322Z,52.46
2018-02-07T14:50:59.107Z,50.48
2018-02-07T14:53:26.694Z,51.52
2018-02-07T14:55:55.154Z,51.21
2018-02-07T14:58:22.674Z,50.27
2018-02-07T15:00:50.232Z,50.83
2018-02-07T15:03:17.757Z,50.19
2018-02-07T15:05:45.296Z,51.74
2018-02-07T15:08:12.869Z,51.89
2018-02-07T15:10:40.406Z,51.64
2018-02-07T15:13:07.960Z,53.09
2018-02-07T15:15:35.509Z,74.05
2018-02-07T15:18:03.286Z,70.08
2018-02-07T15:20:31.206Z,66.46
2018-02-07T15:22:58.772Z,65.57
2018-02-07T15:25:26.289Z,64.55
2018-02-07T15:27:54.050Z,65.15
2018-02-07T15:30:21.638Z,64.98
2018-02-07T15:32:49.172Z,65.05
2018-02-07T15:35:16.726Z,63.71
2018-02-07T15:37:45.551Z,64.49
2018-02-07T15:40:13.141Z,64.12
2018-02-07T15:42:40.674Z,63.65
2018-02-07T15:45:25.712Z,63.44
2018-02-07T15:47:53.238Z,63.27
2018-02-07T15:53:17.130Z,62.94
2018-02-07T15:55:47.317Z,63.22
2018-02-07T15:58:27.696Z,62.79
2018-02-07T16:01:00.540Z,62.90
2018-02-07T16:03:28.226Z,63.12
2018-02-07T16:06:17.080Z,63.05
2018-02-07T16:08:44.771Z,62.51
2018-02-07T16:13:51.851Z,63.14
2018-02-07T16:16:19.368Z,63.00
2018-02-07T16:18:46.897Z,62.92
2018-02-07T16:21:14.480Z,62.86
2018-02-07T16:23:48.260Z,62.79
2018-02-07T16:26:34.098Z,62.62
2018-02-07T16:29:01.635Z,62.94
2018-02-07T16:31:29.197Z,62.83
2018-02-07T16:33:57.295Z,62.80
2018-02-07T16:36:25.154Z,62.75
2018-02-07T16:38:52.855Z,62.81
2018-02-07T16:41:20.475Z,62.66
2018-02-07T16:46:39.719Z,62.70
2018-02-07T16:49:22.839Z,62.60
2018-02-07T16:51:50.393Z,62.98
2018-02-07T16:57:04.016Z,63.09
2018-02-07T16:59:31.568Z,63.00
2018-02-07T17:01:59.237Z,63.01
2018-02-07T17:04:28.128Z,63.02
2018-02-07T17:06:59.154Z,63.05
2018-02-07T17:09:26.743Z,62.80
2018-02-07T17:12:06.772Z,63.15
2018-02-07T17:14:34.583Z,63.11
2018-02-07T17:17:02.174Z,62.60
2018-02-07T17:19:29.816Z,62.45
2018-02-07T17:21:57.526Z,62.57
2018-02-07T17:24:25.050Z,62.99
2018-02-07T17:26:55.662Z,63.13
2018-02-07T17:29:23.679Z,63.09
2018-02-07T17:31:52.817Z,63.02
2018-02-07T17:34:20.483Z,62.64
2018-02-07T17:36:48.017Z,62.81
2018-02-07T17:41:50.249Z,63.19
2018-02-07T17:44:38.656Z,63.20
2018-02-07T17:47:06.240Z,63.18
2018-02-07T17:49:46.264Z,62.92
2018-02-07T17:52:13.791Z,62.72
2018-02-07T17:54:44.673Z,63.00
2018-02-07T17:57:12.292Z,62.82
2018-02-07T18:00:04.571Z,62.63
2018-02-07T18:02:32.477Z,62.61
2018-02-07T18:05:00.066Z,62.61
2018-02-07T18:07:27.603Z,62.90
2018-02-07T18:09:55.178Z,62.69
2018-02-07T18:12:22.750Z,62.93
2018-02-07T18:14:50.457Z,63.20
2018-02-07T18:17:18.193Z,63.05
2018-02-07T18:19:45.996Z,63.13
2018-02-07T18:22:15.659Z,62.64
2018-02-07T18:24:43.258Z,62.79
2018-02-07T18:27:10.856Z,63.04
2018-02-07T18:29:38.413Z,62.14
2018-02-07T18:32:06.024Z,63.35
2018-02-07T18:34:34.939Z,63.08
2018-02-07T18:37:02.837Z,63.07
2018-02-07T18:39:30.518Z,62.77
2018-02-07T18:41:58.871Z,63.23
2018-02-07T18:44:26.701Z,63.29
2018-02-07T18:46:54.374Z,63.56
2018-02-07T18:49:21.940Z,63.09
2018-02-07T18:51:49.569Z,63.60
2018-02-07T18:54:17.604Z,63.47
2018-02-07T18:56:45.164Z,63.60
2018-02-07T18:59:12.709Z,63.78
2018-02-07T19:01:40.287Z,63.52
2018-02-07T19:04:07.810Z,63.35
2018-02-07T19:06:35.999Z,63.77
2018-02-07T19:09:03.593Z,63.53
2018-02-07T19:11:31.208Z,63.70
2018-02-07T19:13:58.747Z,63.51
2018-02-07T19:16:26.303Z,63.75
2018-02-07T19:18:54.633Z,63.81
2018-02-07T19:21:22.202Z,63.59
2018-02-07T19:23:49.948Z,63.81
2018-02-07T19:26:18.842Z,63.58
2018-02-07T19:28:46.409Z,64.08
2018-02-07T19:31:14.327Z,63.30
2018-02-07T19:33:42.975Z,63.56
2018-02-07T19:36:11.591Z,63.54
2018-02-07T19:38:41.846Z,63.30
2018-02-07T19:41:09.649Z,64.08
2018-02-07T19:43:37.295Z,63.27
2018-02-07T19:46:05.123Z,64.16
2018-02-07T19:48:32.842Z,64.30
2018-02-07T19:51:01.100Z,63.46
2018-02-07T19:53:28.931Z,66.11
2018-02-07T19:55:57.391Z,70.94
2018-02-07T19:58:24.959Z,68.01
2018-02-07T20:00:52.563Z,67.93
2018-02-07T20:03:20.800Z,67.96
2018-02-07T20:05:48.335Z,68.32
2018-02-07T20:08:16.104Z,68.17
2018-02-07T20:10:43.706Z,67.66
2018-02-07T20:13:11.294Z,67.50
2018-02-07T20:15:39.069Z,67.64
2018-02-07T20:18:08.707Z,67.96
2018-02-07T20:20:37.112Z,68.06
2018-02-07T20:23:04.965Z,67.66
2018-02-07T20:25:32.847Z,67.61
2018-02-07T20:28:00.533Z,67.80
2018-02-07T20:30:28.375Z,67.84
2018-02-07T20:32:56.741Z,67.61
2018-02-07T20:35:24.627Z,67.81
2018-02-07T20:37:54.494Z,67.97
2018-02-07T20:40:22.893Z,67.30
2018-02-07T20:42:51.762Z,67.84
2018-02-07T20:45:19.690Z,67.74
2018-02-07T20:47:47.720Z,67.57
2018-02-07T20:50:15.814Z,68.25
2018-02-07T20:52:45.465Z,68.38
2018-02-07T20:55:13.659Z,68.47
2018-02-07T20:57:41.364Z,68.43
2018-02-07T21:00:10.325Z,67.96
2018-02-07T21:02:44.561Z,68.49
2018-02-07T21:05:13.254Z,68.36
2018-02-07T21:07:41.125Z,68.16
2018-02-07T21:10:09.128Z,68.35
2018-02-07T21:12:37.135Z,67.78
2018-02-07T21:15:05.185Z,68.55
2018-02-07T21:17:33.539Z,68.00
2018-02-07T21:20:01.265Z,68.60
2018-02-07T21:22:29.380Z,68.25
2018-02-07T21:24:57.150Z,68.36
2018-02-07T21:27:24.868Z,68.67
2018-02-07T21:29:52.400Z,68.42
2018-02-07T21:32:19.982Z,68.86
2018-02-07T21:34:47.510Z,68.88
2018-02-07T21:37:15.023Z,68.39
2018-02-07T21:39:42.583Z,68.38
2018-02-07T21:42:10.341Z,68.88
2018-02-07T21:44:37.873Z,68.86
2018-02-07T21:47:05.715Z,68.20
2018-02-07T21:49:33.264Z,68.45
2018-02-07T21:52:00.794Z,69.00
2018-02-07T21:54:28.360Z,68.99
2018-02-07T21:56:55.871Z,69.04
2018-02-07T21:59:23.654Z,68.93
2018-02-07T22:01:51.216Z,69.19
2018-02-07T22:04:19.523Z,69.17
2018-02-07T22:06:47.076Z,68.94
2018-02-07T22:09:14.776Z,68.98
2018-02-07T22:11:42.311Z,69.20
2018-02-07T22:14:09.848Z,69.04
2018-02-07T22:16:42.549Z,69.19
2018-02-07T22:19:13.384Z,68.87
2018-02-07T22:21:40.921Z,68.48
2018-02-07T22:24:08.657Z,68.68
2018-02-07T22:26:36.179Z,68.90
2018-02-07T22:29:03.736Z,68.82
2018-02-07T22:31:31.584Z,68.84
2018-02-07T22:33:59.176Z,68.63
2018-02-07T22:36:26.958Z,68.83
2018-02-07T22:38:54.514Z,68.95
2018-02-07T22:41:22.406Z,68.42
2018-02-07T22:43:49.962Z,69.00
2018-02-07T22:46:17.526Z,68.54
2018-02-07T22:48:45.051Z,68.80
2018-02-07T22:51:12.584Z,69.12
2018-02-07T22:53:40.512Z,68.94
2018-02-07T22:56:08.048Z,68.84
2018-02-07T22:58:35.565Z,68.41
2018-02-07T23:01:03.331Z,68.93
2018-02-07T23:03:30.861Z,68.67
2018-02-07T23:05:58.573Z,69.01
2018-02-07T23:08:26.131Z,68.90
2018-02-07T23:10:53.674Z,68.95
2018-02-07T23:13:21.208Z,69.05
2018-02-07T23:15:48.763Z,69.04
2018-02-07T23:18:16.283Z,69.45
2018-02-07T23:20:44.074Z,69.81
2018-02-07T23:23:11.653Z,69.79
2018-02-07T23:25:39.572Z,69.72
2018-02-07T23:28:07.227Z,70.24
2018-02-07T23:30:35.063Z,70.11
2018-02-07T23:33:02.865Z,70.24
2018-02-07T23:35:30.407Z,70.51
2018-02-07T23:37:57.946Z,70.30
2018-02-07T23:40:25.526Z,70.65
2018-02-07T23:42:53.186Z,70.85
2018-02-07T23:45:20.779Z,70.92
2018-02-07T23:47:48.303Z,71.02
2018-02-07T23:50:16.216Z,70.91
2018-02-07T23:52:43.756Z,70.98
2018-02-07T23:55:11.268Z,71.14
2018-02-07T23:57:38.805Z,71.42
